createdAt,value
2016-08-29T00:00:30.194Z,0
2016-08-29T00:01:30.911Z,0
2016-08-29T00:02:30.188Z,0
2016-08-29T00:03:30.163Z,0
2016-08-29T00:04:30.160Z,0
2016-08-29T00:05:30.186Z,0
2016-08-29T00:06:30.154Z,0
2016-08-29T00:07:30.166Z,0
2016-08-29T00:08:30.160Z,0
2016-08-29T00:09:30.133Z,0
2016-08-29T00:10:30.108Z,0
2016-08-29T00:11:30.126Z,0
2016-08-29T00:12:30.116Z,0
2016-08-29T00:13:30.101Z,0
2016-08-29T00:14:30.113Z,0
2016-08-29T00:15:30.096Z,0
2016-08-29T00:16:30.069Z,0
2016-08-29T00:17:30.108Z,0
2016-08-29T00:18:30.094Z,0
2016-08-29T00:19:30.062Z,0
2016-08-29T00:20:30.060Z,0
2016-08-29T00:21:30.035Z,0
2016-08-29T00:22:30.055Z,0
2016-08-29T00:23:30.049Z,0
2016-08-29T00:24:30.053Z,0
2016-08-29T00:25:30.314Z,0
2016-08-29T00:26:30.024Z,0
2016-08-29T00:27:29.990Z,0
2016-08-29T00:28:30.016Z,0
2016-08-29T00:29:30.000Z,0
2016-08-29T00:30:30.010Z,0
2016-08-29T00:31:29.963Z,0
2016-08-29T00:32:29.975Z,0
2016-08-29T00:33:29.975Z,0
2016-08-29T00:34:29.987Z,0
2016-08-29T00:35:29.952Z,0
2016-08-29T00:36:29.964Z,0
2016-08-29T00:37:29.949Z,0
2016-08-29T00:38:29.943Z,0
2016-08-29T00:39:29.949Z,0
2016-08-29T00:40:29.937Z,0
2016-08-29T00:41:29.905Z,0
2016-08-29T00:42:29.912Z,0
2016-08-29T00:43:29.895Z,0
2016-08-29T00:44:29.880Z,0
2016-08-29T00:45:29.895Z,0
2016-08-29T00:46:29.880Z,0
2016-08-29T00:47:29.856Z,0
2016-08-29T00:48:29.859Z,0
2016-08-29T00:49:29.860Z,0
2016-08-29T00:50:29.823Z,0
2016-08-29T00:51:29.848Z,0
2016-08-29T00:52:29.826Z,0
2016-08-29T00:53:29.823Z,0
2016-08-29T00:54:29.850Z,0
2016-08-29T00:55:29.828Z,0
2016-08-29T00:56:29.783Z,0
2016-08-29T00:57:29.781Z,0
2016-08-29T00:58:29.801Z,0
2016-08-29T00:59:29.778Z,0
2016-08-29T01:00:29.763Z,0
2016-08-29T01:01:29.795Z,0
2016-08-29T01:02:29.779Z,0
2016-08-29T01:03:29.773Z,0
2016-08-29T01:04:29.778Z,0
2016-08-29T01:05:29.742Z,0
2016-08-29T01:06:29.771Z,0
2016-08-29T01:07:29.729Z,0
2016-08-29T01:08:29.741Z,0
2016-08-29T01:09:29.745Z,0
2016-08-29T01:10:29.711Z,0
2016-08-29T01:11:29.724Z,0
2016-08-29T01:12:29.710Z,0
2016-08-29T01:13:29.688Z,0
2016-08-29T01:14:29.674Z,0
2016-08-29T01:15:29.667Z,0
2016-08-29T01:16:29.686Z,0
2016-08-29T01:17:29.675Z,0
2016-08-29T01:18:29.657Z,0
2016-08-29T01:19:29.665Z,0
2016-08-29T01:20:29.643Z,0
2016-08-29T01:21:29.631Z,0
2016-08-29T01:22:29.619Z,0
2016-08-29T01:23:29.617Z,0
2016-08-29T01:24:29.633Z,0
2016-08-29T01:25:29.679Z,0
2016-08-29T01:26:29.630Z,0
2016-08-29T01:27:29.605Z,0
2016-08-29T01:28:29.614Z,0
2016-08-29T01:29:29.591Z,0
2016-08-29T01:30:29.592Z,0
2016-08-29T01:31:29.560Z,0
2016-08-29T01:32:29.588Z,0
2016-08-29T01:33:29.573Z,0
2016-08-29T01:34:30.256Z,0
2016-08-29T01:35:29.535Z,0
2016-08-29T01:36:30.249Z,0
2016-08-29T01:37:29.543Z,0
2016-08-29T01:38:29.525Z,0
2016-08-29T01:39:29.498Z,0
2016-08-29T01:40:29.502Z,0
2016-08-29T01:41:29.529Z,0
2016-08-29T01:42:29.501Z,0
2016-08-29T01:43:29.512Z,0
2016-08-29T01:44:29.508Z,0
2016-08-29T01:45:29.454Z,0
2016-08-29T01:46:29.472Z,0
2016-08-29T01:47:29.477Z,0
2016-08-29T01:48:29.466Z,0
2016-08-29T01:49:29.452Z,0
2016-08-29T01:50:29.424Z,0
2016-08-29T01:51:29.416Z,0
2016-08-29T01:52:29.443Z,0
2016-08-29T01:53:29.439Z,0
2016-08-29T01:54:29.437Z,0
2016-08-29T01:55:29.417Z,0
2016-08-29T01:56:29.390Z,0
2016-08-29T01:57:29.387Z,0
2016-08-29T01:58:29.401Z,0
2016-08-29T01:59:29.400Z,0
2016-08-29T02:00:29.375Z,0
2016-08-29T02:01:29.394Z,0
2016-08-29T02:02:29.361Z,0
2016-08-29T02:03:29.392Z,0
2016-08-29T02:04:29.370Z,0
2016-08-29T02:05:29.334Z,0
2016-08-29T02:06:29.340Z,0
2016-08-29T02:07:29.353Z,0
2016-08-29T02:08:29.333Z,0
2016-08-29T02:09:29.330Z,0
2016-08-29T02:10:29.329Z,0
2016-08-29T02:11:29.304Z,0
2016-08-29T02:12:29.289Z,0
2016-08-29T02:13:29.294Z,0
2016-08-29T02:14:29.288Z,0
2016-08-29T02:15:29.295Z,0
2016-08-29T02:16:30.023Z,0
2016-08-29T02:17:29.290Z,0
2016-08-29T02:18:29.292Z,0
2016-08-29T02:19:29.279Z,0
2016-08-29T02:20:29.242Z,0
2016-08-29T02:21:29.255Z,0
2016-08-29T02:22:29.237Z,0
2016-08-29T02:23:29.241Z,0
2016-08-29T02:24:29.262Z,0
2016-08-29T02:25:29.543Z,0
2016-08-29T02:26:29.226Z,0
2016-08-29T02:27:29.191Z,0
2016-08-29T02:28:29.222Z,0
2016-08-29T02:29:29.226Z,0
2016-08-29T02:30:29.199Z,0
2016-08-29T02:31:29.202Z,0
2016-08-29T02:32:29.199Z,0
2016-08-29T02:33:29.194Z,0
2016-08-29T02:34:29.174Z,0
2016-08-29T02:35:29.177Z,0
2016-08-29T02:36:29.154Z,0
2016-08-29T02:37:29.153Z,0
2016-08-29T02:38:29.129Z,0
2016-08-29T02:39:29.141Z,0
2016-08-29T02:40:29.153Z,0
2016-08-29T02:41:29.103Z,0
2016-08-29T02:42:29.114Z,0
2016-08-29T02:43:29.106Z,0
2016-08-29T02:44:29.093Z,0
2016-08-29T02:45:29.086Z,0
2016-08-29T02:46:29.114Z,0
2016-08-29T02:47:29.074Z,0
2016-08-29T02:48:29.080Z,0
2016-08-29T02:49:29.080Z,0
2016-08-29T02:50:29.062Z,0
2016-08-29T02:51:29.053Z,0
2016-08-29T02:52:29.060Z,0
2016-08-29T02:53:29.042Z,0
2016-08-29T02:54:29.748Z,0
2016-08-29T02:55:29.021Z,0
2016-08-29T02:56:29.003Z,0
2016-08-29T02:57:29.030Z,0
2016-08-29T02:58:29.008Z,0
2016-08-29T02:59:29.015Z,0
2016-08-29T03:00:28.990Z,0
2016-08-29T03:01:29.003Z,0
2016-08-29T03:02:28.974Z,0
2016-08-29T03:03:28.959Z,0
2016-08-29T03:04:28.969Z,0
2016-08-29T03:05:28.977Z,0
2016-08-29T03:06:28.945Z,0
2016-08-29T03:07:28.936Z,0
2016-08-29T03:08:28.919Z,0
2016-08-29T03:09:28.948Z,0
2016-08-29T03:10:28.937Z,0
2016-08-29T03:11:28.932Z,0
2016-08-29T03:12:29.648Z,0
2016-08-29T03:13:28.908Z,0
2016-08-29T03:14:28.897Z,0
2016-08-29T03:15:29.588Z,0
2016-08-29T03:16:28.911Z,0
2016-08-29T03:17:28.892Z,0
2016-08-29T03:18:28.883Z,0
2016-08-29T03:19:28.895Z,0
2016-08-29T03:20:28.892Z,0
2016-08-29T03:21:28.851Z,0
2016-08-29T03:22:28.833Z,0
2016-08-29T03:23:28.859Z,0
2016-08-29T03:24:28.858Z,0
2016-08-29T03:25:29.030Z,0
2016-08-29T03:26:28.823Z,0
2016-08-29T03:27:28.821Z,0
2016-08-29T03:28:28.826Z,0
2016-08-29T03:29:28.793Z,0
2016-08-29T03:30:29.515Z,0
2016-08-29T03:31:28.815Z,0
2016-08-29T03:32:28.785Z,0
2016-08-29T03:33:28.776Z,0
2016-08-29T03:34:28.796Z,0
2016-08-29T03:35:28.788Z,0
2016-08-29T03:36:28.775Z,0
2016-08-29T03:37:28.749Z,0
2016-08-29T03:38:28.769Z,0
2016-08-29T03:39:28.725Z,0
2016-08-29T03:40:28.735Z,0
2016-08-29T03:41:28.706Z,0
2016-08-29T03:42:28.714Z,0
2016-08-29T03:43:28.727Z,0
2016-08-29T03:44:28.714Z,0
2016-08-29T03:45:28.687Z,0
2016-08-29T03:46:29.421Z,0
2016-08-29T03:47:28.710Z,0
2016-08-29T03:48:28.653Z,0
2016-08-29T03:49:28.672Z,0
2016-08-29T03:50:28.626Z,0
2016-08-29T03:51:28.667Z,0
2016-08-29T03:52:28.630Z,0
2016-08-29T03:53:28.601Z,0
2016-08-29T03:54:29.350Z,0
2016-08-29T03:55:28.619Z,0
2016-08-29T03:56:28.600Z,0
2016-08-29T03:57:28.594Z,0
2016-08-29T03:58:28.614Z,0
2016-08-29T03:59:28.600Z,0
2016-08-29T04:00:28.577Z,0
2016-08-29T04:01:28.551Z,0
2016-08-29T04:02:28.548Z,0
2016-08-29T04:03:28.536Z,0
2016-08-29T04:04:28.530Z,0
2016-08-29T04:05:28.519Z,0
2016-08-29T04:06:28.518Z,0
2016-08-29T04:07:28.487Z,0
2016-08-29T04:08:28.497Z,0
2016-08-29T04:09:28.491Z,0
2016-08-29T04:10:28.595Z,0
2016-08-29T04:11:28.460Z,0
2016-08-29T04:12:28.473Z,4
2016-08-29T04:13:28.441Z,4
2016-08-29T04:14:28.427Z,0
2016-08-29T04:15:28.438Z,4
2016-08-29T04:16:28.409Z,4
2016-08-29T04:17:28.414Z,4
2016-08-29T04:18:28.405Z,8
2016-08-29T04:19:28.397Z,8
2016-08-29T04:20:28.371Z,12
2016-08-29T04:21:28.400Z,16
2016-08-29T04:22:28.383Z,20
2016-08-29T04:23:28.372Z,24
2016-08-29T04:24:28.366Z,32
2016-08-29T04:25:28.326Z,40
2016-08-29T04:26:28.307Z,52
2016-08-29T04:27:28.310Z,60
2016-08-29T04:28:28.318Z,68
2016-08-29T04:29:28.288Z,76
2016-08-29T04:30:28.287Z,84
2016-08-29T04:31:28.305Z,96
2016-08-29T04:32:28.270Z,108
2016-08-29T04:33:28.253Z,120
2016-08-29T04:34:28.251Z,128
2016-08-29T04:35:28.257Z,140
2016-08-29T04:36:28.235Z,152
2016-08-29T04:37:28.250Z,168
2016-08-29T04:38:28.233Z,188
2016-08-29T04:39:28.210Z,200
2016-08-29T04:40:28.195Z,204
2016-08-29T04:41:28.216Z,212
2016-08-29T04:42:28.182Z,252
2016-08-29T04:43:28.172Z,304
2016-08-29T04:44:28.190Z,384
2016-08-29T04:45:28.152Z,488
2016-08-29T04:46:28.144Z,612
2016-08-29T04:47:28.145Z,724
2016-08-29T04:48:28.135Z,836
2016-08-29T04:49:28.117Z,936
2016-08-29T04:50:28.121Z,1032
2016-08-29T04:51:28.108Z,1092
2016-08-29T04:52:28.099Z,1112
2016-08-29T04:53:28.095Z,1120
2016-08-29T04:54:28.075Z,1072
2016-08-29T04:55:28.069Z,964
2016-08-29T04:56:28.086Z,856
2016-08-29T04:57:28.058Z,788
2016-08-29T04:58:28.064Z,788
2016-08-29T04:59:28.027Z,904
2016-08-29T05:00:28.014Z,1136
2016-08-29T05:01:28.024Z,1428
2016-08-29T05:02:28.024Z,1760
2016-08-29T05:03:27.985Z,2028
2016-08-29T05:04:27.991Z,2240
2016-08-29T05:05:28.081Z,2488
2016-08-29T05:06:27.967Z,2800
2016-08-29T05:07:27.956Z,3344
2016-08-29T05:08:27.959Z,4044
2016-08-29T05:09:27.951Z,4688
2016-08-29T05:10:27.942Z,5008
2016-08-29T05:11:27.938Z,5000
2016-08-29T05:12:27.932Z,4772
2016-08-29T05:13:27.938Z,4348
2016-08-29T05:14:27.926Z,3876
2016-08-29T05:15:27.897Z,3720
2016-08-29T05:16:27.892Z,3948
2016-08-29T05:17:27.896Z,4600
2016-08-29T05:18:27.886Z,5456
2016-08-29T05:19:27.867Z,6184
2016-08-29T05:20:27.857Z,6820
2016-08-29T05:21:27.859Z,7452
2016-08-29T05:22:27.858Z,8168
2016-08-29T05:23:27.820Z,9208
2016-08-29T05:24:27.828Z,10428
2016-08-29T05:25:27.813Z,11460
2016-08-29T05:26:27.836Z,12216
2016-08-29T05:27:27.781Z,12888
2016-08-29T05:28:27.773Z,13164
2016-08-29T05:29:27.785Z,13356
2016-08-29T05:30:27.797Z,13436
2016-08-29T05:31:27.750Z,13564
2016-08-29T05:32:27.748Z,13612
2016-08-29T05:33:27.748Z,13576
2016-08-29T05:34:27.727Z,13084
2016-08-29T05:35:28.284Z,12212
2016-08-29T05:36:27.738Z,11480
2016-08-29T05:37:27.716Z,11104
2016-08-29T05:38:27.705Z,10592
2016-08-29T05:39:27.722Z,10004
2016-08-29T05:40:27.708Z,9804
2016-08-29T05:41:27.686Z,10396
2016-08-29T05:42:27.687Z,10720
2016-08-29T05:43:27.671Z,10708
2016-08-29T05:44:27.679Z,9740
2016-08-29T05:45:27.654Z,8280
2016-08-29T05:46:27.615Z,7284
2016-08-29T05:47:27.651Z,6556
2016-08-29T05:48:27.622Z,6216
2016-08-29T05:49:27.616Z,6004
2016-08-29T05:50:27.629Z,5992
2016-08-29T05:51:27.593Z,6180
2016-08-29T05:52:27.581Z,6460
2016-08-29T05:53:27.566Z,6544
2016-08-29T05:54:27.575Z,6708
2016-08-29T05:55:27.562Z,7268
2016-08-29T05:56:27.542Z,8588
2016-08-29T05:57:27.539Z,8660
2016-08-29T05:58:27.533Z,6448
2016-08-29T05:59:27.557Z,6628
2016-08-29T06:00:27.841Z,7068
2016-08-29T06:01:27.516Z,7668
2016-08-29T06:02:27.501Z,8392
2016-08-29T06:03:27.476Z,9060
2016-08-29T06:04:27.501Z,10316
2016-08-29T06:05:27.483Z,11780
2016-08-29T06:06:27.479Z,12868
2016-08-29T06:07:27.452Z,13712
2016-08-29T06:08:27.440Z,14676
2016-08-29T06:09:27.450Z,16652
2016-08-29T06:10:27.451Z,23648
2016-08-29T06:11:27.426Z,30720
2016-08-29T06:12:27.443Z,22688
2016-08-29T06:13:27.393Z,31776
2016-08-29T06:14:27.404Z,32448
2016-08-29T06:15:27.414Z,37440
2016-08-29T06:16:27.396Z,30912
2016-08-29T06:17:27.362Z,21152
2016-08-29T06:18:27.374Z,21600
2016-08-29T06:19:27.377Z,21088
2016-08-29T06:20:27.576Z,27808
2016-08-29T06:21:27.370Z,11564
2016-08-29T06:22:27.330Z,10040
2016-08-29T06:23:27.345Z,9016
2016-08-29T06:24:27.321Z,8608
2016-08-29T06:25:27.335Z,7328
2016-08-29T06:26:27.323Z,6804
2016-08-29T06:27:27.314Z,6728
2016-08-29T06:28:27.285Z,7376
2016-08-29T06:29:27.336Z,8712
2016-08-29T06:30:27.290Z,10264
2016-08-29T06:31:27.293Z,11932
2016-08-29T06:32:27.292Z,13100
2016-08-29T06:33:27.262Z,13116
2016-08-29T06:34:27.252Z,11868
2016-08-29T06:35:27.274Z,10004
2016-08-29T06:36:27.259Z,8560
2016-08-29T06:37:27.250Z,7052
2016-08-29T06:38:27.234Z,5732
2016-08-29T06:39:27.230Z,4900
2016-08-29T06:40:27.249Z,4424
2016-08-29T06:41:27.228Z,4212
2016-08-29T06:42:27.195Z,4100
2016-08-29T06:43:27.219Z,3968
2016-08-29T06:44:27.191Z,3804
2016-08-29T06:45:27.681Z,3608
2016-08-29T06:46:27.184Z,3464
2016-08-29T06:47:27.165Z,3524
2016-08-29T06:48:27.173Z,3692
2016-08-29T06:49:27.173Z,3868
2016-08-29T06:50:27.152Z,4128
2016-08-29T06:51:27.138Z,4472
2016-08-29T06:52:27.146Z,5092
2016-08-29T06:53:27.125Z,5728
2016-08-29T06:54:27.121Z,6560
2016-08-29T06:55:27.123Z,7748
2016-08-29T06:56:27.121Z,9036
2016-08-29T06:57:27.084Z,10204
2016-08-29T06:58:27.099Z,11124
2016-08-29T06:59:27.097Z,12064
2016-08-29T07:00:27.069Z,13000
2016-08-29T07:01:27.067Z,14056
2016-08-29T07:02:27.773Z,15380
2016-08-29T07:03:27.069Z,16768
2016-08-29T07:04:27.046Z,18016
2016-08-29T07:05:27.041Z,19008
2016-08-29T07:06:27.012Z,21216
2016-08-29T07:07:27.031Z,22016
2016-08-29T07:08:27.035Z,23648
2016-08-29T07:09:26.993Z,24864
2016-08-29T07:10:27.387Z,25408
2016-08-29T07:11:26.996Z,26080
2016-08-29T07:12:26.999Z,28096
2016-08-29T07:13:26.991Z,30336
2016-08-29T07:14:26.967Z,31296
2016-08-29T07:15:26.984Z,31904
2016-08-29T07:16:26.973Z,32704
2016-08-29T07:17:26.934Z,34144
2016-08-29T07:18:26.956Z,36448
2016-08-29T07:19:26.951Z,38880
2016-08-29T07:20:26.951Z,40768
2016-08-29T07:21:26.937Z,40704
2016-08-29T07:22:26.917Z,38624
2016-08-29T07:23:26.914Z,35424
2016-08-29T07:24:26.897Z,31168
2016-08-29T07:25:26.916Z,28128
2016-08-29T07:26:27.051Z,27712
2016-08-29T07:27:26.916Z,26976
2016-08-29T07:28:26.903Z,25536
2016-08-29T07:29:27.580Z,21600
2016-08-29T07:30:26.889Z,16120
2016-08-29T07:31:26.869Z,12544
2016-08-29T07:32:26.851Z,11652
2016-08-29T07:33:26.844Z,11672
2016-08-29T07:34:26.846Z,11308
2016-08-29T07:35:26.822Z,10304
2016-08-29T07:36:26.805Z,9368
2016-08-29T07:37:27.533Z,8740
2016-08-29T07:38:26.807Z,8300
2016-08-29T07:39:26.795Z,8148
2016-08-29T07:40:27.119Z,8236
2016-08-29T07:41:27.997Z,8504
2016-08-29T07:42:26.799Z,8916
2016-08-29T07:43:26.768Z,9140
2016-08-29T07:44:26.790Z,9656
2016-08-29T07:45:26.784Z,9600
2016-08-29T07:46:26.752Z,9220
2016-08-29T07:47:26.740Z,9036
2016-08-29T07:48:26.753Z,9256
2016-08-29T07:49:26.750Z,9856
2016-08-29T07:50:27.227Z,10584
2016-08-29T07:51:26.760Z,10960
2016-08-29T07:52:26.724Z,11120
2016-08-29T07:53:26.719Z,11152
2016-08-29T07:54:26.706Z,11228
2016-08-29T07:55:26.688Z,11224
2016-08-29T07:56:26.692Z,11080
2016-08-29T07:57:26.681Z,10760
2016-08-29T07:58:26.673Z,10212
2016-08-29T07:59:27.372Z,9276
2016-08-29T08:00:26.687Z,8244
2016-08-29T08:01:26.668Z,7704
2016-08-29T08:02:26.659Z,7832
2016-08-29T08:03:26.649Z,8164
2016-08-29T08:04:26.676Z,8772
2016-08-29T08:05:26.628Z,9340
2016-08-29T08:06:26.650Z,9316
2016-08-29T08:07:26.608Z,8628
2016-08-29T08:08:26.613Z,7528
2016-08-29T08:09:26.617Z,6540
2016-08-29T08:10:26.605Z,5728
2016-08-29T08:11:26.594Z,5156
2016-08-29T08:12:26.614Z,4612
2016-08-29T08:13:26.585Z,4028
2016-08-29T08:14:26.579Z,3596
2016-08-29T08:15:26.548Z,3560
2016-08-29T08:16:26.593Z,4000
2016-08-29T08:17:26.566Z,4912
2016-08-29T08:18:26.555Z,5792
2016-08-29T08:19:26.528Z,5720
2016-08-29T08:20:26.546Z,5280
2016-08-29T08:21:26.535Z,4968
2016-08-29T08:22:26.520Z,5304
2016-08-29T08:23:26.500Z,6332
2016-08-29T08:24:26.539Z,7000
2016-08-29T08:25:26.641Z,6756
2016-08-29T08:26:26.509Z,6736
2016-08-29T08:27:26.482Z,7412
2016-08-29T08:28:27.200Z,8624
2016-08-29T08:29:26.456Z,9520
2016-08-29T08:30:26.465Z,9440
2016-08-29T08:31:26.470Z,8652
2016-08-29T08:32:26.469Z,8324
2016-08-29T08:33:26.447Z,8584
2016-08-29T08:34:26.465Z,8952
2016-08-29T08:35:26.430Z,8584
2016-08-29T08:36:26.460Z,8108
2016-08-29T08:37:26.439Z,8184
2016-08-29T08:38:26.418Z,6620
2016-08-29T08:39:26.399Z,5016
2016-08-29T08:40:27.124Z,4904
2016-08-29T08:41:26.413Z,4968
2016-08-29T08:42:26.366Z,4088
2016-08-29T08:43:26.400Z,3396
2016-08-29T08:44:26.371Z,3436
2016-08-29T08:45:26.375Z,3820
2016-08-29T08:46:26.355Z,4152
2016-08-29T08:47:26.385Z,5736
2016-08-29T08:48:26.376Z,6628
2016-08-29T08:49:26.356Z,6440
2016-08-29T08:50:26.327Z,6040
2016-08-29T08:51:27.052Z,2564
2016-08-29T08:52:26.328Z,1968
2016-08-29T08:53:26.339Z,1876
2016-08-29T08:54:26.308Z,1784
2016-08-29T08:55:27.023Z,1624
2016-08-29T08:56:26.281Z,1588
2016-08-29T08:57:26.287Z,1568
2016-08-29T08:58:26.266Z,1616
2016-08-29T08:59:26.275Z,1768
2016-08-29T09:00:26.904Z,1876
2016-08-29T09:01:26.245Z,1816
2016-08-29T09:02:26.231Z,1740
2016-08-29T09:03:26.249Z,1620
2016-08-29T09:04:26.201Z,1628
2016-08-29T09:05:26.219Z,1660
2016-08-29T09:06:26.206Z,1756
2016-08-29T09:07:26.181Z,1928
2016-08-29T09:08:26.190Z,2244
2016-08-29T09:09:26.890Z,3368
2016-08-29T09:10:26.171Z,5224
2016-08-29T09:11:26.166Z,6416
2016-08-29T09:12:26.170Z,7144
2016-08-29T09:13:26.123Z,8436
2016-08-29T09:14:26.165Z,6408
2016-08-29T09:15:26.120Z,5168
2016-08-29T09:16:26.105Z,4980
2016-08-29T09:17:26.083Z,5960
2016-08-29T09:18:26.800Z,7568
2016-08-29T09:19:26.094Z,8328
2016-08-29T09:20:26.077Z,8428
2016-08-29T09:21:26.072Z,8576
2016-08-29T09:22:26.042Z,7980
2016-08-29T09:23:26.040Z,8476
2016-08-29T09:24:26.037Z,9396
2016-08-29T09:25:27.408Z,9768
2016-08-29T09:26:26.017Z,9080
2016-08-29T09:27:26.004Z,8156
2016-08-29T09:28:26.015Z,8964
2016-08-29T09:29:26.000Z,9700
2016-08-29T09:30:26.001Z,10272
2016-08-29T09:31:25.987Z,12064
2016-08-29T09:32:25.988Z,12084
2016-08-29T09:33:25.960Z,9472
2016-08-29T09:34:25.956Z,9096
2016-08-29T09:35:25.940Z,10824
2016-08-29T09:36:25.925Z,11448
2016-08-29T09:37:25.937Z,10764
2016-08-29T09:38:25.910Z,10288
2016-08-29T09:39:25.892Z,11484
2016-08-29T09:40:25.896Z,11664
2016-08-29T09:41:25.882Z,12880
2016-08-29T09:42:25.913Z,15056
2016-08-29T09:43:25.879Z,17760
2016-08-29T09:44:25.877Z,20416
2016-08-29T09:45:25.862Z,22240
2016-08-29T09:46:25.856Z,23200
2016-08-29T09:47:25.858Z,24544
2016-08-29T09:48:25.814Z,25600
2016-08-29T09:49:25.821Z,25920
2016-08-29T09:50:25.814Z,28640
2016-08-29T09:51:25.789Z,29600
2016-08-29T09:52:25.817Z,30336
2016-08-29T09:53:25.787Z,34432
2016-08-29T09:54:25.779Z,33568
2016-08-29T09:55:25.792Z,30720
2016-08-29T09:56:25.772Z,31808
2016-08-29T09:57:25.755Z,29760
2016-08-29T09:58:25.739Z,27520
2016-08-29T09:59:25.725Z,25920
2016-08-29T10:00:25.751Z,25312
2016-08-29T10:01:25.711Z,25344
2016-08-29T10:02:25.700Z,25280
2016-08-29T10:03:25.709Z,24960
2016-08-29T10:04:25.702Z,24384
2016-08-29T10:05:25.752Z,23744
2016-08-29T10:06:25.697Z,23200
2016-08-29T10:07:25.675Z,22784
2016-08-29T10:08:25.682Z,22464
2016-08-29T10:09:25.654Z,21856
2016-08-29T10:10:25.648Z,21600
2016-08-29T10:11:25.644Z,20832
2016-08-29T10:12:25.610Z,19904
2016-08-29T10:13:25.611Z,18912
2016-08-29T10:14:25.595Z,17920
2016-08-29T10:15:25.900Z,16548
2016-08-29T10:16:25.577Z,15496
2016-08-29T10:17:25.565Z,14264
2016-08-29T10:18:25.577Z,13472
2016-08-29T10:19:26.245Z,12512
2016-08-29T10:20:25.531Z,11912
2016-08-29T10:21:25.541Z,11244
2016-08-29T10:22:25.539Z,10088
2016-08-29T10:23:25.534Z,9544
2016-08-29T10:24:25.509Z,8976
2016-08-29T10:25:25.577Z,8412
2016-08-29T10:26:25.510Z,7952
2016-08-29T10:27:25.625Z,7640
2016-08-29T10:28:25.466Z,7380
2016-08-29T10:29:25.464Z,7100
2016-08-29T10:30:26.158Z,7080
2016-08-29T10:31:25.445Z,7016
2016-08-29T10:32:25.443Z,7004
2016-08-29T10:33:25.421Z,6836
2016-08-29T10:34:25.424Z,7668
2016-08-29T10:35:25.480Z,8608
2016-08-29T10:36:25.415Z,9420
2016-08-29T10:37:25.363Z,9740
2016-08-29T10:38:25.369Z,9576
2016-08-29T10:39:25.368Z,9348
2016-08-29T10:40:25.342Z,10556
2016-08-29T10:41:25.324Z,11944
2016-08-29T10:42:25.332Z,13160
2016-08-29T10:43:25.315Z,14276
2016-08-29T10:44:25.281Z,15304
2016-08-29T10:45:25.306Z,16044
2016-08-29T10:46:25.280Z,16420
2016-08-29T10:47:25.296Z,15820
2016-08-29T10:48:25.267Z,14520
2016-08-29T10:49:25.239Z,13260
2016-08-29T10:50:25.237Z,12740
2016-08-29T10:51:25.220Z,12552
2016-08-29T10:52:25.546Z,11468
2016-08-29T10:53:25.236Z,11432
2016-08-29T10:54:25.195Z,10244
2016-08-29T10:55:25.191Z,11248
2016-08-29T10:56:25.208Z,12860
2016-08-29T10:57:25.163Z,13156
2016-08-29T10:58:25.156Z,12844
2016-08-29T10:59:25.150Z,13560
2016-08-29T11:00:25.125Z,13032
2016-08-29T11:01:25.131Z,12700
2016-08-29T11:02:25.112Z,12284
2016-08-29T11:03:25.125Z,11980
2016-08-29T11:04:25.093Z,12732
2016-08-29T11:05:25.080Z,13124
2016-08-29T11:06:25.087Z,11764
2016-08-29T11:07:25.745Z,11684
2016-08-29T11:08:25.067Z,12544
2016-08-29T11:09:25.059Z,12620
2016-08-29T11:10:25.045Z,11772
2016-08-29T11:11:25.021Z,11252
2016-08-29T11:12:25.011Z,11552
2016-08-29T11:13:24.985Z,11692
2016-08-29T11:14:24.990Z,11652
2016-08-29T11:15:24.975Z,12480
2016-08-29T11:16:24.964Z,13152
2016-08-29T11:17:24.940Z,14128
2016-08-29T11:18:25.679Z,15016
2016-08-29T11:19:24.930Z,15256
2016-08-29T11:20:24.915Z,15748
2016-08-29T11:21:24.925Z,16816
2016-08-29T11:22:24.902Z,18304
2016-08-29T11:23:24.898Z,17696
2016-08-29T11:24:24.875Z,16828
2016-08-29T11:25:24.841Z,17308
2016-08-29T11:26:24.848Z,16536
2016-08-29T11:27:25.601Z,16020
2016-08-29T11:28:24.842Z,16912
2016-08-29T11:29:24.815Z,18528
2016-08-29T11:30:25.493Z,19296
2016-08-29T11:31:24.814Z,20224
2016-08-29T11:32:24.799Z,21984
2016-08-29T11:33:24.795Z,23808
2016-08-29T11:34:24.771Z,25280
2016-08-29T11:35:24.767Z,25984
2016-08-29T11:36:24.799Z,23232
2016-08-29T11:37:24.742Z,22496
2016-08-29T11:38:24.725Z,22656
2016-08-29T11:39:25.457Z,22464
2016-08-29T11:40:25.060Z,22336
2016-08-29T11:41:24.694Z,23040
2016-08-29T11:42:24.702Z,23968
2016-08-29T11:43:24.659Z,25696
2016-08-29T11:44:24.698Z,28896
2016-08-29T11:45:24.657Z,33248
2016-08-29T11:46:25.344Z,37568
2016-08-29T11:47:24.676Z,41056
2016-08-29T11:48:24.651Z,43488
2016-08-29T11:49:24.631Z,44736
2016-08-29T11:50:24.637Z,45472
2016-08-29T11:51:24.620Z,47072
2016-08-29T11:52:24.596Z,49792
2016-08-29T11:53:24.576Z,52992
2016-08-29T11:54:24.571Z,53536
2016-08-29T11:55:24.575Z,55744
2016-08-29T11:56:24.569Z,59904
2016-08-29T11:57:24.585Z,70272
2016-08-29T11:58:24.537Z,77312
2016-08-29T11:59:24.526Z,85472
2016-08-29T12:00:25.225Z,93728
2016-08-29T12:01:24.503Z,70432
2016-08-29T12:02:24.517Z,70528
2016-08-29T12:03:24.512Z,54560
2016-08-29T12:04:24.516Z,54176
2016-08-29T12:05:24.485Z,72064
2016-08-29T12:06:24.457Z,45312
2016-08-29T12:07:24.455Z,53184
2016-08-29T12:08:24.437Z,59168
2016-08-29T12:09:24.446Z,49184
2016-08-29T12:10:24.494Z,50912
2016-08-29T12:11:24.426Z,59104
2016-08-29T12:12:24.408Z,60672
2016-08-29T12:13:24.411Z,60640
2016-08-29T12:14:25.113Z,60096
2016-08-29T12:15:24.401Z,57632
2016-08-29T12:16:24.381Z,58720
2016-08-29T12:17:24.360Z,65120
2016-08-29T12:18:24.351Z,58080
2016-08-29T12:19:24.373Z,50112
2016-08-29T12:20:24.443Z,45344
2016-08-29T12:21:24.355Z,43296
2016-08-29T12:22:24.326Z,45632
2016-08-29T12:23:24.326Z,50848
2016-08-29T12:24:24.319Z,54528
2016-08-29T12:25:24.305Z,58048
2016-08-29T12:26:24.312Z,55840
2016-08-29T12:27:24.611Z,56992
2016-08-29T12:28:24.286Z,50400
2016-08-29T12:29:24.271Z,50304
2016-08-29T12:30:24.312Z,48384
2016-08-29T12:31:24.273Z,48576
2016-08-29T12:32:24.283Z,50560
2016-08-29T12:33:24.936Z,62176
2016-08-29T12:34:24.236Z,97344
2016-08-29T12:35:24.261Z,88128
2016-08-29T12:36:24.225Z,92704
2016-08-29T12:37:24.216Z,129184
2016-08-29T12:38:24.205Z,128384
2016-08-29T12:39:24.209Z,148992
2016-08-29T12:40:24.215Z,173248
2016-08-29T12:41:24.228Z,170304
2016-08-29T12:42:24.202Z,144096
2016-08-29T12:43:24.163Z,130048
2016-08-29T12:44:24.159Z,78528
2016-08-29T12:45:24.336Z,79936
2016-08-29T12:46:24.157Z,78048
2016-08-29T12:47:24.165Z,67808
2016-08-29T12:48:24.175Z,73280
2016-08-29T12:49:24.174Z,83680
2016-08-29T12:50:24.138Z,95904
2016-08-29T12:51:24.153Z,83136
2016-08-29T12:52:24.140Z,67328
2016-08-29T12:53:24.149Z,61696
2016-08-29T12:54:24.119Z,60736
2016-08-29T12:55:24.108Z,55424
2016-08-29T12:56:24.111Z,53920
2016-08-29T12:57:24.099Z,52672
2016-08-29T12:58:24.095Z,48160
2016-08-29T12:59:24.103Z,45184
2016-08-29T13:00:24.233Z,40896
2016-08-29T13:01:24.078Z,42368
2016-08-29T13:02:24.073Z,44512
2016-08-29T13:03:24.081Z,43232
2016-08-29T13:04:24.084Z,44192
2016-08-29T13:05:24.634Z,44416
2016-08-29T13:06:24.049Z,46688
2016-08-29T13:07:24.021Z,57024
2016-08-29T13:08:24.031Z,44960
2016-08-29T13:09:24.005Z,37056
2016-08-29T13:10:24.026Z,31712
2016-08-29T13:11:24.035Z,26464
2016-08-29T13:12:23.995Z,24320
2016-08-29T13:13:24.006Z,23584
2016-08-29T13:14:24.018Z,22912
2016-08-29T13:15:23.972Z,22784
2016-08-29T13:16:23.954Z,22944
2016-08-29T13:17:23.988Z,23552
2016-08-29T13:18:23.944Z,23712
2016-08-29T13:19:23.968Z,20320
2016-08-29T13:20:24.839Z,18592
2016-08-29T13:21:23.935Z,17664
2016-08-29T13:22:23.919Z,15736
2016-08-29T13:23:24.628Z,16088
2016-08-29T13:24:23.914Z,14276
2016-08-29T13:25:24.093Z,13976
2016-08-29T13:26:23.902Z,15516
2016-08-29T13:27:23.941Z,17152
2016-08-29T13:28:23.854Z,16400
2016-08-29T13:29:23.888Z,13772
2016-08-29T13:30:24.532Z,15724
2016-08-29T13:31:23.835Z,12860
2016-08-29T13:32:24.540Z,9940
2016-08-29T13:33:23.823Z,8568
2016-08-29T13:34:23.823Z,8284
2016-08-29T13:35:23.834Z,7788